createdAt,value
2018-12-13T00:00:18.593Z,8.00
2018-12-13T00:03:25.494Z,8.70
2018-12-13T00:06:33.509Z,8.20
2018-12-13T00:09:38.314Z,8.90
2018-12-13T00:12:44.809Z,7.93
2018-12-13T00:15:49.541Z,7.87
2018-12-13T00:18:54.293Z,8.43
2018-12-13T00:21:59.182Z,8.30
2018-12-13T00:25:03.976Z,7.77
2018-12-13T00:28:08.714Z,7.87
2018-12-13T00:31:13.458Z,7.40
2018-12-13T00:34:18.184Z,7.53
2018-12-13T00:37:22.922Z,8.23
2018-12-13T00:40:27.706Z,8.23
2018-12-13T00:43:32.428Z,9.57
2018-12-13T00:46:37.185Z,9.30
2018-12-13T00:49:41.878Z,8.50
2018-12-13T00:52:46.619Z,9.03
2018-12-13T00:55:51.332Z,9.47
2018-12-13T00:58:56.056Z,9.67
2018-12-13T01:02:00.780Z,9.70
2018-12-13T01:05:05.957Z,10.33
2018-12-13T01:08:11.764Z,8.43
2018-12-13T01:11:16.555Z,9.33
2018-12-13T01:14:21.290Z,8.47
2018-12-13T01:17:26.032Z,7.47
2018-12-13T01:20:30.918Z,7.70
2018-12-13T01:23:35.693Z,7.33
2018-12-13T01:26:40.529Z,7.67
2018-12-13T01:29:45.248Z,7.67
2018-12-13T01:32:51.145Z,7.13
2018-12-13T01:35:55.861Z,7.30
2018-12-13T01:39:00.597Z,7.13
2018-12-13T01:42:07.372Z,8.13
2018-12-13T01:45:12.129Z,7.47
2018-12-13T01:48:16.962Z,6.80
2018-12-13T01:51:21.703Z,7.20
2018-12-13T01:54:26.427Z,6.53
2018-12-13T01:57:31.147Z,6.23
2018-12-13T02:00:36.420Z,6.33
2018-12-13T02:03:41.182Z,6.80
2018-12-13T02:06:46.068Z,5.93
2018-12-13T02:09:50.818Z,6.50
2018-12-13T02:12:55.571Z,7.43
2018-12-13T02:16:00.306Z,7.70
2018-12-13T02:19:05.002Z,7.70
2018-12-13T02:22:09.743Z,8.00
2018-12-13T02:25:14.661Z,9.93
2018-12-13T02:28:19.390Z,9.07
2018-12-13T02:31:24.133Z,7.93
2018-12-13T02:34:28.865Z,7.40
2018-12-13T02:37:33.646Z,5.60
2018-12-13T02:40:38.477Z,7.00
2018-12-13T02:43:43.199Z,6.40
2018-12-13T02:46:47.991Z,8.40
2018-12-13T02:49:52.735Z,6.50
2018-12-13T02:52:57.616Z,5.37
2018-12-13T02:56:02.306Z,5.00
2018-12-13T02:59:07.060Z,5.00
2018-12-13T03:02:11.872Z,5.00
2018-12-13T03:05:16.671Z,5.10
2018-12-13T03:08:21.429Z,6.07
2018-12-13T03:11:26.193Z,6.73
2018-12-13T03:14:30.931Z,6.67
2018-12-13T03:17:35.637Z,6.33
2018-12-13T03:20:40.385Z,7.10
2018-12-13T03:23:45.090Z,6.50
2018-12-13T03:26:49.790Z,6.87
2018-12-13T03:29:54.533Z,11.10
2018-12-13T03:32:59.286Z,14.00
2018-12-13T03:36:04.073Z,8.87
2018-12-13T03:39:09.401Z,8.00
2018-12-13T03:42:14.235Z,6.50
2018-12-13T03:45:18.963Z,6.47
2018-12-13T03:48:23.680Z,6.07
2018-12-13T03:51:28.418Z,5.90
2018-12-13T03:54:33.117Z,5.17
2018-12-13T03:57:37.859Z,6.00
2018-12-13T04:00:42.709Z,6.47
2018-12-13T04:03:47.794Z,5.70
2018-12-13T04:06:52.549Z,5.63
2018-12-13T04:09:57.284Z,5.63
2018-12-13T04:13:02.043Z,6.07
2018-12-13T04:16:06.775Z,5.50
2018-12-13T04:19:11.495Z,5.43
2018-12-13T04:22:16.196Z,5.40
2018-12-13T04:25:20.899Z,6.00
2018-12-13T04:28:25.620Z,6.43
2018-12-13T04:31:30.437Z,6.23
2018-12-13T04:34:35.190Z,7.20
2018-12-13T04:37:39.914Z,8.00
2018-12-13T04:40:44.605Z,8.00
2018-12-13T04:43:49.308Z,9.40
2018-12-13T04:46:54.214Z,9.30
2018-12-13T04:49:58.945Z,9.20
2018-12-13T04:53:03.689Z,9.17
2018-12-13T04:56:08.425Z,10.47
2018-12-13T04:59:13.145Z,10.53
2018-12-13T05:02:18.027Z,9.73
2018-12-13T05:05:22.793Z,11.93
2018-12-13T05:08:27.794Z,11.20
2018-12-13T05:11:32.527Z,12.10
2018-12-13T05:14:37.269Z,13.20
2018-12-13T05:17:42.032Z,13.33
2018-12-13T05:20:46.756Z,12.60
2018-12-13T05:23:51.563Z,13.73
2018-12-13T05:26:56.261Z,19.20
2018-12-13T05:30:00.991Z,18.37
2018-12-13T05:33:05.746Z,20.57
2018-12-13T05:36:10.475Z,20.97
2018-12-13T05:39:15.278Z,21.10
2018-12-13T05:42:20.099Z,20.57
2018-12-13T05:45:24.838Z,41.03
2018-12-13T05:48:29.548Z,30.20
2018-12-13T05:51:34.344Z,18.77
2018-12-13T05:54:39.071Z,16.97
2018-12-13T05:57:43.805Z,18.57
2018-12-13T06:00:48.534Z,18.77
2018-12-13T06:03:53.365Z,18.20
2018-12-13T06:06:58.062Z,32.13
2018-12-13T06:10:02.838Z,18.47
2018-12-13T06:13:07.615Z,18.30
2018-12-13T06:16:12.356Z,16.27
2018-12-13T06:19:17.077Z,31.07
2018-12-13T06:22:21.834Z,24.70
2018-12-13T06:25:26.702Z,18.67
2018-12-13T06:28:31.465Z,18.80
2018-12-13T06:31:36.201Z,16.60
2018-12-13T06:34:41.003Z,17.33
2018-12-13T06:37:45.729Z,18.33
2018-12-13T06:40:50.501Z,18.53
2018-12-13T06:43:55.223Z,19.10
2018-12-13T06:46:59.965Z,29.50
2018-12-13T06:50:05.153Z,23.73
2018-12-13T06:53:09.882Z,19.97
2018-12-13T06:56:14.666Z,23.70
2018-12-13T06:59:19.402Z,20.87
2018-12-13T07:02:24.126Z,18.77
2018-12-13T07:05:28.858Z,16.80
2018-12-13T07:08:33.610Z,16.10
2018-12-13T07:11:38.786Z,16.60
2018-12-13T07:14:43.522Z,19.00
2018-12-13T07:17:48.292Z,18.07
2018-12-13T07:20:53.076Z,18.67
2018-12-13T07:23:57.854Z,13.27
2018-12-13T07:27:02.562Z,14.50
2018-12-13T07:30:08.889Z,15.50
2018-12-13T07:33:13.626Z,14.37
2018-12-13T07:36:18.412Z,12.40
2018-12-13T07:39:23.158Z,11.90
2018-12-13T07:42:28.025Z,11.67
2018-12-13T07:45:32.837Z,10.90
2018-12-13T07:48:37.710Z,10.67
2018-12-13T07:51:42.445Z,12.87
2018-12-13T07:54:47.140Z,10.70
2018-12-13T07:57:51.848Z,13.03
2018-12-13T08:00:56.605Z,21.20
2018-12-13T08:04:01.335Z,21.67
2018-12-13T08:07:06.101Z,23.57
2018-12-13T08:10:10.836Z,18.87
2018-12-13T08:13:15.611Z,27.13
2018-12-13T08:16:20.334Z,25.53
2018-12-13T08:19:27.081Z,28.10
2018-12-13T08:22:33.229Z,26.23
2018-12-13T08:25:37.954Z,25.60
2018-12-13T08:28:42.656Z,22.53
2018-12-13T08:31:47.378Z,18.27
2018-12-13T08:34:52.097Z,23.07
2018-12-13T08:37:56.806Z,21.67
2018-12-13T08:41:01.509Z,22.37
2018-12-13T08:44:07.654Z,24.20
2018-12-13T08:47:12.377Z,23.87
2018-12-13T08:50:17.078Z,23.03
2018-12-13T08:53:21.780Z,24.00
2018-12-13T08:56:27.690Z,21.23
2018-12-13T08:59:32.437Z,20.67
2018-12-13T09:02:37.171Z,20.00
2018-12-13T09:05:41.896Z,19.50
2018-12-13T09:08:46.642Z,23.87
2018-12-13T09:11:51.318Z,18.00
2018-12-13T09:14:56.034Z,18.33
2018-12-13T09:18:00.757Z,17.20
2018-12-13T09:21:05.463Z,17.67
2018-12-13T09:24:10.249Z,19.30
2018-12-13T09:27:15.028Z,16.90
2018-12-13T09:30:19.729Z,16.07
2018-12-13T09:33:24.465Z,16.00
2018-12-13T09:36:29.219Z,17.07
2018-12-13T09:39:33.909Z,76.77
2018-12-13T09:42:38.617Z,18.27
2018-12-13T09:45:43.311Z,15.27
2018-12-13T09:48:49.390Z,16.00
2018-12-13T09:51:54.386Z,9.23
2018-12-13T09:55:05.438Z,9.60
2018-12-13T09:58:05.900Z,10.53
2018-12-13T10:01:10.595Z,10.90
2018-12-13T10:04:15.303Z,10.10
2018-12-13T10:07:20.070Z,7.07
2018-12-13T10:10:25.086Z,7.30
2018-12-13T10:13:29.882Z,6.87
2018-12-13T10:16:34.588Z,12.50
2018-12-13T10:19:39.310Z,5.90
2018-12-13T10:22:44.023Z,6.33
2018-12-13T10:25:48.886Z,12.00
2018-12-13T10:28:53.715Z,6.30
2018-12-13T10:31:58.448Z,4.87
2018-12-13T10:35:03.146Z,4.37
2018-12-13T10:38:08.984Z,5.67
2018-12-13T10:41:13.663Z,5.97
2018-12-13T10:44:22.446Z,6.83
2018-12-13T10:47:27.154Z,5.37
2018-12-13T10:50:31.870Z,7.07
2018-12-13T10:53:36.561Z,11.07
2018-12-13T10:56:41.241Z,9.03
2018-12-13T10:59:45.924Z,9.47
2018-12-13T11:03:05.665Z,9.37
2018-12-13T11:06:10.349Z,11.67
2018-12-13T11:09:15.274Z,10.13
2018-12-13T11:12:22.010Z,11.00
2018-12-13T11:15:26.715Z,10.27
2018-12-13T11:18:31.433Z,10.90
2018-12-13T11:21:36.132Z,11.97
2018-12-13T11:24:40.862Z,12.23
2018-12-13T11:29:57.248Z,12.27
2018-12-13T11:33:01.985Z,11.83
2018-12-13T11:36:06.773Z,10.70
2018-12-13T11:39:11.457Z,8.20
2018-12-13T11:42:17.295Z,8.10
2018-12-13T11:45:22.095Z,8.40
2018-12-13T11:48:26.773Z,8.20
2018-12-13T11:51:31.621Z,15.30
2018-12-13T11:54:42.611Z,9.90
2018-12-13T11:57:47.314Z,10.93
2018-12-13T12:00:52.027Z,8.87
2018-12-13T12:03:56.738Z,10.20
2018-12-13T12:07:01.481Z,11.50
2018-12-13T12:10:06.501Z,12.63
2018-12-13T12:13:11.263Z,17.97
2018-12-13T12:16:15.988Z,19.20
2018-12-13T12:19:20.721Z,22.23
2018-12-13T12:22:25.481Z,320.80
2018-12-13T12:25:30.219Z,18.30
2018-12-13T12:28:35.074Z,14.67
2018-12-13T12:31:39.766Z,13.87
2018-12-13T12:34:44.539Z,13.17
2018-12-13T12:37:49.246Z,12.33
2018-12-13T12:40:54.000Z,14.07
2018-12-13T12:43:58.688Z,18.77
2018-12-13T12:47:03.595Z,12.37
2018-12-13T12:50:09.088Z,15.63
2018-12-13T12:53:13.842Z,13.57
2018-12-13T12:56:19.666Z,14.50
2018-12-13T12:59:24.356Z,22.43
2018-12-13T13:02:30.231Z,11.73
2018-12-13T13:05:34.990Z,11.13
2018-12-13T13:08:39.733Z,9.87
2018-12-13T13:11:44.520Z,11.37
2018-12-13T13:14:49.198Z,10.60
2018-12-13T13:17:53.885Z,14.13
2018-12-13T13:20:58.586Z,11.33
2018-12-13T13:24:03.318Z,8.50
2018-12-13T13:27:08.005Z,9.40
2018-12-13T13:30:12.921Z,12.20
2018-12-13T13:33:17.637Z,9.90
2018-12-13T13:36:22.381Z,9.10
2018-12-13T13:39:31.467Z,11.30
2018-12-13T13:42:33.833Z,11.90
2018-12-13T13:45:38.563Z,11.63
2018-12-13T13:48:43.415Z,11.80
2018-12-13T13:51:48.088Z,13.57
2018-12-13T13:54:52.812Z,10.53
2018-12-13T13:57:57.501Z,17.93
2018-12-13T14:01:02.201Z,15.00
2018-12-13T14:04:08.359Z,13.00
2018-12-13T14:07:13.070Z,12.63
2018-12-13T14:10:17.758Z,14.20
2018-12-13T14:13:22.462Z,15.20
2018-12-13T14:16:27.198Z,16.27
2018-12-13T14:19:31.928Z,17.10
2018-12-13T14:22:36.640Z,18.37
2018-12-13T14:25:41.353Z,21.43
2018-12-13T14:28:47.090Z,13.63
2018-12-13T14:31:51.772Z,11.40
2018-12-13T14:34:57.586Z,13.00
2018-12-13T14:38:02.361Z,12.23
2018-12-13T14:41:09.147Z,13.50
2018-12-13T14:44:36.788Z,13.10
2018-12-13T14:47:41.490Z,14.47
2018-12-13T14:50:46.190Z,16.67
2018-12-13T14:53:50.900Z,33.37
2018-12-13T14:56:55.626Z,15.87
2018-12-13T15:00:00.324Z,13.13
2018-12-13T15:03:07.119Z,15.90
2018-12-13T15:06:12.105Z,32.57
2018-12-13T15:09:16.807Z,18.90
2018-12-13T15:12:21.522Z,29.10
2018-12-13T15:15:26.367Z,18.80
2018-12-13T15:18:32.121Z,18.73
2018-12-13T15:21:36.835Z,26.67
2018-12-13T15:24:41.497Z,22.27
2018-12-13T15:27:46.229Z,22.93
2018-12-13T15:30:50.942Z,24.63
2018-12-13T15:33:55.677Z,20.37
2018-12-13T15:37:00.379Z,20.37
2018-12-13T15:40:05.406Z,19.27
2018-12-13T15:43:10.278Z,21.80
2018-12-13T15:46:14.977Z,20.80
2018-12-13T15:49:20.259Z,23.17
2018-12-13T15:52:25.008Z,24.27
2018-12-13T15:55:29.740Z,33.60
2018-12-13T15:58:34.425Z,34.80
2018-12-13T16:01:39.119Z,27.77
2018-12-13T16:04:43.837Z,29.60
2018-12-13T16:07:48.507Z,26.83
2018-12-13T16:10:53.221Z,23.00
2018-12-13T16:13:57.979Z,20.37
2018-12-13T16:17:02.781Z,19.43
2018-12-13T16:20:07.822Z,21.10
2018-12-13T16:23:13.221Z,27.57
2018-12-13T16:26:18.021Z,33.10
2018-12-13T16:29:22.717Z,28.27
2018-12-13T16:32:27.539Z,30.90
2018-12-13T16:35:32.261Z,31.67
2018-12-13T16:38:37.017Z,36.50
2018-12-13T16:41:41.795Z,34.43
2018-12-13T16:44:46.508Z,35.10
2018-12-13T16:47:51.207Z,30.30
2018-12-13T16:50:56.054Z,25.23
2018-12-13T16:54:00.759Z,29.83
2018-12-13T16:57:05.517Z,46.73
2018-12-13T17:00:10.450Z,53.47
2018-12-13T17:03:27.921Z,83.23
2018-12-13T17:06:32.646Z,80.20
2018-12-13T17:09:37.346Z,80.17
2018-12-13T17:12:42.048Z,80.00
2018-12-13T17:15:46.745Z,72.20
2018-12-13T17:18:51.647Z,73.03
2018-12-13T17:21:56.348Z,78.20
2018-12-13T17:25:01.504Z,79.40
2018-12-13T17:28:06.217Z,109.37
2018-12-13T17:31:10.921Z,113.57
2018-12-13T17:34:15.638Z,102.33
2018-12-13T17:37:20.337Z,68.37
2018-12-13T17:40:25.043Z,61.63
2018-12-13T17:43:29.813Z,48.93
2018-12-13T17:46:35.416Z,61.17
2018-12-13T17:49:40.275Z,78.00
2018-12-13T17:52:45.961Z,54.10
2018-12-13T17:55:50.792Z,51.23
2018-12-13T17:58:55.928Z,50.37
2018-12-13T18:02:00.638Z,68.10
2018-12-13T18:05:06.011Z,81.23
2018-12-13T18:08:10.736Z,47.73
2018-12-13T18:11:15.588Z,57.47
2018-12-13T18:14:20.306Z,44.67
2018-12-13T18:17:25.078Z,33.70
2018-12-13T18:20:30.344Z,31.13
2018-12-13T18:23:35.350Z,28.20
2018-12-13T18:26:40.459Z,29.13
2018-12-13T18:29:46.577Z,28.40
2018-12-13T18:32:51.637Z,29.97
2018-12-13T18:35:56.338Z,40.77
2018-12-13T18:39:01.061Z,37.67
2018-12-13T18:42:07.857Z,38.97
2018-12-13T18:45:12.620Z,43.23
2018-12-13T18:48:17.342Z,47.73
2018-12-13T18:51:22.097Z,47.00
2018-12-13T18:54:26.829Z,61.40
2018-12-13T18:57:31.533Z,66.13
2018-12-13T19:03:54.628Z,60.87
2018-12-13T19:07:00.021Z,117.67
2018-12-13T19:10:05.455Z,78.53
2018-12-13T19:13:10.194Z,67.33
2018-12-13T19:16:15.089Z,64.23
2018-12-13T19:19:22.361Z,72.63
2018-12-13T19:22:28.291Z,71.10
2018-12-13T19:25:33.083Z,76.90
2018-12-13T19:28:37.825Z,70.37
2018-12-13T19:31:44.426Z,86.90
2018-12-13T19:34:49.127Z,84.03
2018-12-13T19:37:54.554Z,74.73
2018-12-13T19:40:59.312Z,73.57
2018-12-13T19:44:04.120Z,81.77
2018-12-13T19:47:08.850Z,71.93
2018-12-13T19:50:13.606Z,54.80
2018-12-13T19:53:18.505Z,52.93
2018-12-13T19:56:23.566Z,49.93
2018-12-13T19:59:28.302Z,59.20
2018-12-13T20:02:33.049Z,47.93
2018-12-13T20:05:38.723Z,39.03
2018-12-13T20:08:44.050Z,48.30
2018-12-13T20:11:48.927Z,40.87
2018-12-13T20:14:53.805Z,41.23
2018-12-13T20:17:58.550Z,41.60
2018-12-13T20:21:03.286Z,43.37
2018-12-13T20:24:08.304Z,43.60
2018-12-13T20:27:13.546Z,42.20
2018-12-13T20:30:18.365Z,44.20
2018-12-13T20:33:23.118Z,43.80
2018-12-13T20:36:27.896Z,37.37
2018-12-13T20:39:32.607Z,37.13
2018-12-13T20:42:37.933Z,34.73
2018-12-13T20:45:43.426Z,34.93
2018-12-13T20:48:48.167Z,39.17
2018-12-13T20:51:52.961Z,39.87
2018-12-13T20:54:57.678Z,38.10
2018-12-13T20:58:05.439Z,42.87
2018-12-13T21:01:10.646Z,35.50
2018-12-13T21:04:15.390Z,33.97
2018-12-13T21:07:25.061Z,41.23
2018-12-13T21:10:29.823Z,46.00
2018-12-13T21:13:34.569Z,40.93
2018-12-13T21:16:39.284Z,31.30
2018-12-13T21:19:44.008Z,27.43
2018-12-13T21:22:48.827Z,29.57
2018-12-13T21:25:53.560Z,33.73
2018-12-13T21:28:58.318Z,38.67
2018-12-13T21:32:03.104Z,74.53
2018-12-13T21:35:08.241Z,46.30
2018-12-13T21:38:14.403Z,39.40
2018-12-13T21:41:19.134Z,37.13
2018-12-13T21:44:24.890Z,38.57
2018-12-13T21:47:29.669Z,36.70
2018-12-13T21:50:34.385Z,33.97
2018-12-13T21:53:39.127Z,34.97
2018-12-13T21:56:44.312Z,31.70
2018-12-13T21:59:49.059Z,39.37
2018-12-13T22:02:53.754Z,65.00
2018-12-13T22:05:58.489Z,43.00
2018-12-13T22:09:04.144Z,41.73
2018-12-13T22:12:10.964Z,42.83
2018-12-13T22:15:16.433Z,45.17
2018-12-13T22:18:21.196Z,49.13
2018-12-13T22:21:25.969Z,45.90
2018-12-13T22:24:30.702Z,44.10
2018-12-13T22:27:35.508Z,38.00
2018-12-13T22:30:40.260Z,36.90
2018-12-13T22:33:45.028Z,36.60
2018-12-13T22:36:50.146Z,35.23
2018-12-13T22:39:54.868Z,35.27
2018-12-13T22:42:59.633Z,33.73
2018-12-13T22:46:04.881Z,34.40
2018-12-13T22:49:09.663Z,33.23
2018-12-13T22:52:14.458Z,33.87
2018-12-13T22:55:19.293Z,29.43
2018-12-13T22:58:24.059Z,31.43
2018-12-13T23:01:28.983Z,30.47
2018-12-13T23:04:33.999Z,28.60
2018-12-13T23:07:39.923Z,24.90
2018-12-13T23:10:44.842Z,23.77
2018-12-13T23:13:49.630Z,23.40
2018-12-13T23:16:54.405Z,18.77
2018-12-13T23:19:59.139Z,17.80
2018-12-13T23:23:03.921Z,17.83
2018-12-13T23:26:08.678Z,19.80
2018-12-13T23:29:13.433Z,15.67
2018-12-13T23:32:18.193Z,16.00
2018-12-13T23:35:22.953Z,15.90
2018-12-13T23:38:27.717Z,15.50
2018-12-13T23:41:32.462Z,14.87
2018-12-13T23:44:37.210Z,28.40
2018-12-13T23:47:42.143Z,22.97
2018-12-13T23:50:46.887Z,20.90
2018-12-13T23:53:51.724Z,23.73
2018-12-13T23:56:56.505Z,19.40
